Terminal Aerodrome Forecast
Issued by NWS

Home | Current Version | Previous Version | Text Only | Print | Product List | Glossary On
Versions: 1 2 3 4 5 6 7 8 9 10 11 12 13 14 15
058
FTUS43 KPAH 210520
TAFCGI
TAF
KCGI 210520Z 2106/2206 VRB05KT P6SM SCT080 BKN250
      TEMPO 2106/2108 4SM BR
     FM210800 01007KT P6SM SCT035 BKN250
     FM211200 02010KT P6SM BKN030
     FM211800 03010KT P6SM VCTS BKN035CB
     FM220300 03009KT P6SM BKN035=

USA.gov is the U.S. government's official web portal to all federal, state and local government web resources and services.